Enter the Airport ICAO Code

Search by Airport or City

Current Weather

LELC | Murcia–San Javier Airport

Murcia, Region of Murcia, Spain

Last Update 14 Minutes Ago

Sky with Few Clouds

Temperature of 26 ºC

Moderate Winds from NorthEast

Temperature

26 ºC

Dew Point Temperature

16 ºC

Relative Humidity

54.28 %

Wind Direction

NorthEast (050º, Ranging from 010º to 100º)

Wind Velocity

26 km/h (14 kt)

Gusts

None

Visibility

Greater than 10 Kilometers

Sea Level Pressure

1018 hPa (Hectopascals)

Layers of Clouds

5% to 30% of Sky Covered from 914 mts (3000 ft) Above Ground Level.

METAR LELC 211400Z 05014KT 010V100 9999 FEW030 26/16 Q1018 NOSIG

Weather Forecast

LELC | Murcia–San Javier Airport

Murcia, Region of Murcia, Spain

Forecast valid for the next 22 Hours

From now on it is expected:

Partly Cloudy Sky

Moderate to Strong Winds from NorthEast

In 1 hour it is expected the begining of 8 hours with intermittent periods of:

Moderate to Strong Winds from NorthEast with Gusts

In 14 hours it is expected the begining of 4 hours with intermittent periods of:

Moderate Winds from North

In 10 hours it is expected the begining of 12 hours with intermittent periods of:

Rain

Maximum Temperature

26 ºC in -1 Hours

Minimum Temperature

19 ºC in 16 Hours

TAF LELC 211100Z 2112/2212 05016KT 9999 SCT035 TX26/2113Z TN19/2206Z PROB40 TEMPO 2115/2123 05020G32KT TEMPO 2204/2208 35010KT PROB30 TEMPO 2200/2212 4000 SHRA SCT030CB